Time;durP1;ratioP1;P1;durP2;ratioP2;P2;SDS_P1;SDS_P2;PMS_P1;PMS_P2;Temp;Humidity;BMP_temperature;BMP_pressure;BME280_temperature;BME280_humidity;BME280_pressure;Samples;Min_cycle;Max_cycle;Signal;HPM_P1;HPM_P2
2022/03/15 00:01:17;;;;;;;22.00;9.27;;;;;;;;;;5069966;28;20035;-72
2022/03/15 00:03:43;;;;;;;18.25;9.77;;;;;;;;;;5058051;28;20017;-73
2022/03/15 00:06:09;;;;;;;12.32;6.45;;;;;;;;;;5065407;28;20100;-73
2022/03/15 00:08:36;;;;;;;21.35;10.88;;;;;;;;;;5065025;28;20025;-72
2022/03/15 00:11:05;;;;;;;9.38;5.93;;;;;;;;;;5073675;28;20032;-73
2022/03/15 00:13:31;;;;;;;15.82;9.38;;;;;;;;;;5054270;28;20028;-74
2022/03/15 00:16:02;;;;;;;19.20;9.07;;;;;;;;;;5060209;28;20036;-73
2022/03/15 00:18:30;;;;;;;17.77;9.35;;;;;;;;;;5062695;28;20021;-72
2022/03/15 00:20:56;;;;;;;14.18;7.18;;;;;;;;;;5067995;28;20024;-72
2022/03/15 00:23:22;;;;;;;13.02;6.03;;;;;;;;;;5056422;28;20025;-72
2022/03/15 00:25:48;;;;;;;14.43;8.20;;;;;;;;;;5067724;28;20021;-72
2022/03/15 00:28:15;;;;;;;17.95;8.65;;;;;;;;;;5062149;28;20033;-72
2022/03/15 00:30:41;;;;;;;14.80;8.30;;;;;;;;;;5060341;28;20025;-72
2022/03/15 00:33:08;;;;;;;17.00;9.10;;;;;;;;;;5051253;28;20044;-72
2022/03/15 00:35:35;;;;;;;17.80;8.77;;;;;;;;;;5056338;28;20495;-72
2022/03/15 00:38:01;;;;;;;17.33;9.23;;;;;;;;;;5065601;28;20021;-71
2022/03/15 00:40:27;;;;;;;13.63;7.68;;;;;;;;;;5045846;28;20017;-72
2022/03/15 00:42:53;;;;;;;12.85;6.20;;;;;;;;;;5059120;28;20048;-72
2022/03/15 00:45:22;;;;;;;12.18;7.45;;;;;;;;;;5069309;28;20021;-73
2022/03/15 00:47:49;;;;;;;19.30;8.63;;;;;;;;;;5057943;28;20040;-73
2022/03/15 00:50:14;;;;;;;10.45;6.45;;;;;;;;;;5045565;28;20632;-72
2022/03/15 00:52:41;;;;;;;16.20;7.10;;;;;;;;;;5065114;28;20070;-72
2022/03/15 00:55:07;;;;;;;15.48;6.65;;;;;;;;;;5038282;28;20112;-71
2022/03/15 00:57:33;;;;;;;15.70;7.13;;;;;;;;;;5068101;28;20018;-72
2022/03/15 00:59:59;;;;;;;18.15;7.95;;;;;;;;;;5041570;28;20163;-72
2022/03/15 01:02:25;;;;;;;14.00;7.20;;;;;;;;;;5062148;28;20270;-73
2022/03/15 01:04:51;;;;;;;17.83;8.45;;;;;;;;;;5066397;28;20017;-72
2022/03/15 01:07:17;;;;;;;12.07;5.50;;;;;;;;;;5055606;28;20171;-72
2022/03/15 01:09:44;;;;;;;11.90;6.00;;;;;;;;;;5072419;28;20066;-73
2022/03/15 01:12:11;;;;;;;10.82;5.38;;;;;;;;;;5063995;28;20480;-72
2022/03/15 01:14:37;;;;;;;10.00;5.30;;;;;;;;;;5064202;28;20047;-72
2022/03/15 01:17:03;;;;;;;18.88;7.93;;;;;;;;;;5038139;28;20028;-70
2022/03/15 01:19:29;;;;;;;10.23;6.25;;;;;;;;;;5068351;28;20029;-72
2022/03/15 01:21:56;;;;;;;13.45;6.63;;;;;;;;;;5058603;28;20372;-73
2022/03/15 01:24:23;;;;;;;12.30;6.97;;;;;;;;;;5062126;28;20024;-72
2022/03/15 01:26:51;;;;;;;13.70;6.82;;;;;;;;;;5052598;28;20085;-72
2022/03/15 01:29:18;;;;;;;11.52;6.50;;;;;;;;;;5055702;28;20028;-72
2022/03/15 01:31:44;;;;;;;9.55;5.63;;;;;;;;;;5067007;28;20044;-72
2022/03/15 01:34:10;;;;;;;16.85;8.00;;;;;;;;;;5067562;23;20024;-78
2022/03/15 01:36:36;;;;;;;16.15;8.60;;;;;;;;;;5043540;28;20029;-75
2022/03/15 01:39:04;;;;;;;17.08;8.18;;;;;;;;;;5051474;28;20501;-75
2022/03/15 01:41:30;;;;;;;14.60;7.80;;;;;;;;;;5051923;28;20543;-77
2022/03/15 01:43:56;;;;;;;11.15;6.05;;;;;;;;;;5052194;28;20102;-77
2022/03/15 01:46:22;;;;;;;16.30;7.75;;;;;;;;;;5051926;28;20028;-77
2022/03/15 01:48:48;;;;;;;16.33;8.50;;;;;;;;;;5051360;28;20032;-75
2022/03/15 01:51:15;;;;;;;13.77;7.15;;;;;;;;;;5051854;28;20120;-76
2022/03/15 01:53:42;;;;;;;17.83;8.48;;;;;;;;;;5051722;28;20219;-75
2022/03/15 01:56:08;;;;;;;15.93;8.00;;;;;;;;;;5050550;28;20032;-75
2022/03/15 01:58:34;;;;;;;11.18;6.35;;;;;;;;;;5050783;28;20025;-75
2022/03/15 02:01:00;;;;;;;12.93;6.78;;;;;;;;;;5052011;28;20025;-75
2022/03/15 02:03:26;;;;;;;15.15;7.45;;;;;;;;;;5050001;28;20384;-76
2022/03/15 02:05:52;;;;;;;12.98;7.55;;;;;;;;;;5051275;28;20082;-76
2022/03/15 02:08:18;;;;;;;11.10;6.32;;;;;;;;;;5050302;28;20448;-76
2022/03/15 02:10:44;;;;;;;12.40;6.55;;;;;;;;;;5051206;28;20025;-76
2022/03/15 02:13:11;;;;;;;11.13;5.78;;;;;;;;;;5050898;28;20040;-76
2022/03/15 02:15:37;;;;;;;8.48;4.68;;;;;;;;;;5049421;28;20032;-76
2022/03/15 02:18:03;;;;;;;9.95;4.90;;;;;;;;;;5050298;28;20086;-76
2022/03/15 02:20:29;;;;;;;8.88;5.20;;;;;;;;;;5049716;28;20027;-76
2022/03/15 02:22:56;;;;;;;8.05;4.80;;;;;;;;;;5051324;28;20037;-76
2022/03/15 02:25:22;;;;;;;12.95;5.10;;;;;;;;;;5051205;28;20025;-75
2022/03/15 02:27:48;;;;;;;11.68;5.63;;;;;;;;;;5050696;28;20480;-75
2022/03/15 02:30:14;;;;;;;9.85;5.93;;;;;;;;;;5050318;28;20488;-75
2022/03/15 02:32:42;;;;;;;8.35;5.30;;;;;;;;;;5052017;28;20026;-75
2022/03/15 02:35:09;;;;;;;11.00;5.70;;;;;;;;;;5050790;28;20029;-75
2022/03/15 02:37:34;;;;;;;9.07;4.88;;;;;;;;;;5031784;28;20061;-78
2022/03/15 02:40:00;;;;;;;11.38;4.88;;;;;;;;;;5039657;28;20422;-75
2022/03/15 02:42:27;;;;;;;9.45;4.47;;;;;;;;;;5051836;28;20027;-76
2022/03/15 02:44:52;;;;;;;8.07;5.00;;;;;;;;;;5053917;28;20162;-76
2022/03/15 02:47:18;;;;;;;7.22;4.70;;;;;;;;;;5051899;28;20145;-76
2022/03/15 02:49:44;;;;;;;11.68;5.20;;;;;;;;;;5050883;28;20048;-77
2022/03/15 02:52:10;;;;;;;8.60;4.90;;;;;;;;;;5051251;28;20120;-75
2022/03/15 02:54:40;;;;;;;8.10;5.07;;;;;;;;;;5050873;28;20035;-75
2022/03/15 02:57:10;;;;;;;14.55;5.90;;;;;;;;;;5049839;28;20025;-74
2022/03/15 02:59:36;;;;;;;13.50;5.60;;;;;;;;;;5034153;28;20498;-75
2022/03/15 03:02:03;;;;;;;10.23;5.45;;;;;;;;;;5050743;28;20036;-75
2022/03/15 03:04:29;;;;;;;9.55;5.40;;;;;;;;;;5050987;28;20099;-77
2022/03/15 03:06:55;;;;;;;11.45;6.10;;;;;;;;;;5050560;28;20056;-76
2022/03/15 03:09:21;;;;;;;12.23;7.22;;;;;;;;;;5049719;28;20498;-75
2022/03/15 03:11:47;;;;;;;12.73;6.32;;;;;;;;;;5049058;28;20035;-75
2022/03/15 03:14:13;;;;;;;12.43;6.15;;;;;;;;;;5050965;28;20085;-75
2022/03/15 03:16:40;;;;;;;7.85;4.32;;;;;;;;;;5050872;28;20052;-75
2022/03/15 03:19:08;;;;;;;11.57;5.20;;;;;;;;;;5050283;28;20484;-75
2022/03/15 03:21:36;;;;;;;9.38;5.30;;;;;;;;;;5053511;28;20411;-76
2022/03/15 03:24:06;;;;;;;9.65;6.00;;;;;;;;;;5054803;28;20025;-74
2022/03/15 03:26:32;;;;;;;11.57;6.10;;;;;;;;;;5053432;28;20029;-75
2022/03/15 03:28:59;;;;;;;12.00;6.15;;;;;;;;;;5051869;28;20487;-75
2022/03/15 03:31:25;;;;;;;7.70;5.20;;;;;;;;;;5055351;28;20037;-76
2022/03/15 03:33:51;;;;;;;10.32;4.63;;;;;;;;;;5053276;28;20074;-77
2022/03/15 03:36:17;;;;;;;11.20;4.95;;;;;;;;;;5053872;28;20136;-74
2022/03/15 03:38:44;;;;;;;10.95;5.75;;;;;;;;;;5053911;28;20032;-74
2022/03/15 03:41:10;;;;;;;13.20;5.82;;;;;;;;;;5054528;28;20016;-75
2022/03/15 03:43:35;;;;;;;12.23;6.28;;;;;;;;;;5053935;28;20388;-74
2022/03/15 03:46:02;;;;;;;9.68;6.32;;;;;;;;;;5054188;28;20021;-74
2022/03/15 03:48:28;;;;;;;8.63;5.22;;;;;;;;;;5055488;28;20029;-75
2022/03/15 03:50:54;;;;;;;12.15;6.13;;;;;;;;;;5057663;28;20021;-75
2022/03/15 03:53:21;;;;;;;7.60;4.60;;;;;;;;;;5053441;28;20507;-74
2022/03/15 03:55:47;;;;;;;9.85;4.88;;;;;;;;;;5053945;28;20044;-75
2022/03/15 03:58:13;;;;;;;11.13;5.50;;;;;;;;;;5053209;28;20036;-75
2022/03/15 04:00:39;;;;;;;10.95;5.88;;;;;;;;;;5056230;28;20551;-75
2022/03/15 04:03:06;;;;;;;11.95;6.90;;;;;;;;;;5058909;28;20052;-75
2022/03/15 04:05:35;;;;;;;11.13;5.75;;;;;;;;;;5055630;28;20017;-76
2022/03/15 04:08:01;;;;;;;13.63;5.18;;;;;;;;;;5057303;28;20107;-75
2022/03/15 04:10:28;;;;;;;11.00;5.60;;;;;;;;;;5057516;28;20411;-75
2022/03/15 04:12:55;;;;;;;10.27;5.40;;;;;;;;;;5054695;28;20078;-75
2022/03/15 04:15:21;;;;;;;10.77;5.88;;;;;;;;;;5059250;28;20052;-75
2022/03/15 04:17:47;;;;;;;9.73;5.95;;;;;;;;;;5059227;28;20025;-75
2022/03/15 04:20:13;;;;;;;11.00;6.28;;;;;;;;;;5058348;28;20036;-75
2022/03/15 04:22:39;;;;;;;12.90;6.80;;;;;;;;;;5051717;28;20317;-75
2022/03/15 04:25:06;;;;;;;11.25;6.88;;;;;;;;;;5053021;28;20031;-75
2022/03/15 04:27:32;;;;;;;10.25;5.70;;;;;;;;;;5051853;28;20530;-75
2022/03/15 04:29:58;;;;;;;10.85;6.35;;;;;;;;;;5054443;28;20060;-74
2022/03/15 04:32:24;;;;;;;17.25;6.95;;;;;;;;;;5052804;28;20045;-75
2022/03/15 04:34:51;;;;;;;12.02;6.38;;;;;;;;;;5052748;28;20063;-75
2022/03/15 04:37:18;;;;;;;8.52;6.18;;;;;;;;;;5051730;28;20455;-74
2022/03/15 04:39:44;;;;;;;9.95;6.00;;;;;;;;;;5052465;28;20036;-74
2022/03/15 04:42:11;;;;;;;10.98;7.43;;;;;;;;;;5052558;28;20021;-75
2022/03/15 04:44:37;;;;;;;12.35;7.13;;;;;;;;;;5054027;28;20100;-75
2022/03/15 04:47:03;;;;;;;12.32;6.93;;;;;;;;;;5052856;28;20032;-75
2022/03/15 04:49:29;;;;;;;12.70;6.80;;;;;;;;;;5060177;28;20107;-76
2022/03/15 04:51:55;;;;;;;14.88;7.00;;;;;;;;;;5060426;28;20037;-77
2022/03/15 04:54:21;;;;;;;14.95;7.15;;;;;;;;;;5054732;28;20028;-77
2022/03/15 04:56:47;;;;;;;13.10;7.32;;;;;;;;;;5055844;28;20021;-75
2022/03/15 04:59:13;;;;;;;13.70;6.95;;;;;;;;;;5056998;28;20075;-75
2022/03/15 05:01:39;;;;;;;9.75;6.35;;;;;;;;;;5055204;28;20025;-75
2022/03/15 05:04:05;;;;;;;11.93;6.53;;;;;;;;;;5057577;28;20057;-76
2022/03/15 05:06:31;;;;;;;10.80;6.18;;;;;;;;;;5052670;28;20112;-76
2022/03/15 05:08:57;;;;;;;14.07;6.80;;;;;;;;;;5052453;28;20036;-77
2022/03/15 05:11:23;;;;;;;10.77;6.50;;;;;;;;;;5052880;28;20025;-77
2022/03/15 05:13:49;;;;;;;10.23;6.22;;;;;;;;;;5052451;28;20091;-76
2022/03/15 05:16:17;;;;;;;14.18;6.75;;;;;;;;;;5057288;28;20032;-76
2022/03/15 05:18:44;;;;;;;11.23;6.13;;;;;;;;;;5056994;28;20021;-76
2022/03/15 05:21:14;;;;;;;12.27;6.82;;;;;;;;;;5055870;28;20029;-76
2022/03/15 05:23:41;;;;;;;13.50;7.03;;;;;;;;;;5061043;28;20383;-75
2022/03/15 05:26:07;;;;;;;12.43;6.13;;;;;;;;;;5058873;28;20744;-76
2022/03/15 05:28:33;;;;;;;9.73;6.55;;;;;;;;;;5054582;28;20021;-76
2022/03/15 05:30:59;;;;;;;14.27;6.47;;;;;;;;;;5048022;28;20503;-76
2022/03/15 05:33:25;;;;;;;13.30;6.97;;;;;;;;;;5051495;28;20358;-76
2022/03/15 05:35:51;;;;;;;10.35;7.07;;;;;;;;;;5050291;28;20036;-75
2022/03/15 05:38:18;;;;;;;10.20;6.30;;;;;;;;;;5050731;28;20021;-75
2022/03/15 05:40:44;;;;;;;10.32;6.13;;;;;;;;;;5045492;28;20108;-75
2022/03/15 05:43:10;;;;;;;10.65;6.30;;;;;;;;;;5048986;28;20432;-77
2022/03/15 05:45:36;;;;;;;12.10;6.00;;;;;;;;;;5051459;28;20384;-76
2022/03/15 05:48:03;;;;;;;8.25;5.70;;;;;;;;;;5051019;28;20042;-75
2022/03/15 05:50:29;;;;;;;10.10;5.32;;;;;;;;;;5051877;28;20392;-76
2022/03/15 05:52:55;;;;;;;9.75;5.97;;;;;;;;;;5050540;28;20025;-78
2022/03/15 05:55:21;;;;;;;11.00;5.97;;;;;;;;;;5052065;28;20107;-77
2022/03/15 05:57:47;;;;;;;8.48;5.53;;;;;;;;;;5049935;28;20056;-76
2022/03/15 06:00:14;;;;;;;9.50;5.70;;;;;;;;;;5055481;28;20074;-76
2022/03/15 06:02:40;;;;;;;9.05;6.05;;;;;;;;;;5058745;28;20029;-75
2022/03/15 06:05:07;;;;;;;10.63;5.88;;;;;;;;;;5052023;28;20029;-74
2022/03/15 06:07:33;;;;;;;8.85;5.32;;;;;;;;;;5051272;28;20028;-76
2022/03/15 06:09:59;;;;;;;9.30;5.28;;;;;;;;;;5052649;28;20083;-75
2022/03/15 06:12:25;;;;;;;7.00;4.82;;;;;;;;;;5052511;28;20369;-76
2022/03/15 06:14:52;;;;;;;8.80;5.05;;;;;;;;;;5051890;28;20400;-76
2022/03/15 06:17:18;;;;;;;7.32;5.38;;;;;;;;;;5050928;28;20029;-76
2022/03/15 06:19:44;;;;;;;8.20;5.00;;;;;;;;;;5051520;28;20090;-75
2022/03/15 06:22:10;;;;;;;9.13;5.40;;;;;;;;;;5050866;28;20464;-76
2022/03/15 06:24:37;;;;;;;10.32;5.50;;;;;;;;;;5050590;28;20025;-76
2022/03/15 06:27:03;;;;;;;13.00;6.88;;;;;;;;;;5049681;28;20052;-75
2022/03/15 06:29:30;;;;;;;12.15;5.88;;;;;;;;;;5050351;28;20040;-77
2022/03/15 06:31:56;;;;;;;11.57;5.10;;;;;;;;;;5050885;28;20112;-75
2022/03/15 06:34:23;;;;;;;12.15;5.43;;;;;;;;;;5051353;28;20411;-75
2022/03/15 06:36:49;;;;;;;7.80;5.30;;;;;;;;;;5051050;28;20048;-74
2022/03/15 06:39:15;;;;;;;10.07;5.43;;;;;;;;;;5050322;28;20013;-76
2022/03/15 06:41:42;;;;;;;9.68;5.30;;;;;;;;;;5047766;28;20025;-76
2022/03/15 06:44:09;;;;;;;14.02;5.43;;;;;;;;;;5053494;28;20027;-76
2022/03/15 06:46:35;;;;;;;10.68;5.47;;;;;;;;;;5052038;28;20029;-77
2022/03/15 06:49:01;;;;;;;7.10;5.05;;;;;;;;;;5052963;28;20040;-75
2022/03/15 06:51:27;;;;;;;13.45;4.72;;;;;;;;;;5053182;28;20507;-76
2022/03/15 06:53:54;;;;;;;11.18;5.00;;;;;;;;;;5051921;28;20040;-77
2022/03/15 06:56:20;;;;;;;8.20;4.88;;;;;;;;;;5056881;28;20035;-76
2022/03/15 06:58:47;;;;;;;7.97;4.75;;;;;;;;;;5055825;28;20492;-76
2022/03/15 07:01:13;;;;;;;8.20;5.25;;;;;;;;;;5053155;28;20037;-79
2022/03/15 07:03:42;;;;;;;10.75;4.65;;;;;;;;;;5056993;28;20025;-80
2022/03/15 07:06:08;;;;;;;7.38;4.88;;;;;;;;;;5057094;28;20031;-80
2022/03/15 07:08:34;;;;;;;8.52;4.78;;;;;;;;;;5056855;28;20514;-79
2022/03/15 07:11:00;;;;;;;8.32;5.28;;;;;;;;;;5057668;28;20107;-80
2022/03/15 07:13:26;;;;;;;9.38;4.53;;;;;;;;;;5057858;28;20396;-80
2022/03/15 07:15:52;;;;;;;5.93;4.38;;;;;;;;;;5057279;28;20529;-81
2022/03/15 07:18:21;;;;;;;9.23;5.05;;;;;;;;;;5058928;28;20056;-80
2022/03/15 07:20:47;;;;;;;9.20;4.97;;;;;;;;;;5059939;28;20381;-79
2022/03/15 07:23:13;;;;;;;9.73;4.55;;;;;;;;;;5056557;28;20474;-79
2022/03/15 07:25:39;;;;;;;6.55;4.68;;;;;;;;;;5059305;28;20028;-79
2022/03/15 07:28:05;;;;;;;8.70;4.18;;;;;;;;;;5058882;28;20044;-80
2022/03/15 07:30:31;;;;;;;7.13;3.78;;;;;;;;;;5062049;28;20143;-81
2022/03/15 07:33:06;;;;;;;5.75;4.30;;;;;;;;;;5061966;28;20032;-81
2022/03/15 07:35:54;;;;;;;7.90;4.60;;;;;;;;;;5065488;23;20095;-76
2022/03/15 07:38:20;;;;;;;8.30;4.47;;;;;;;;;;5015861;28;20025;-75
2022/03/15 07:40:46;;;;;;;6.90;4.00;;;;;;;;;;5034554;28;20026;-75
2022/03/15 07:43:12;;;;;;;10.75;4.85;;;;;;;;;;5034414;28;20029;-75
2022/03/15 07:45:38;;;;;;;9.00;4.63;;;;;;;;;;5034785;28;20080;-73
2022/03/15 07:48:05;;;;;;;8.02;4.15;;;;;;;;;;5033855;28;20453;-75
2022/03/15 07:50:31;;;;;;;7.70;4.13;;;;;;;;;;5032925;28;20470;-76
2022/03/15 07:52:58;;;;;;;6.70;4.53;;;;;;;;;;5015235;28;20037;-75
2022/03/15 07:55:24;;;;;;;9.30;4.68;;;;;;;;;;5026175;28;20105;-74
2022/03/15 07:57:50;;;;;;;6.30;3.65;;;;;;;;;;5032387;28;20091;-75
2022/03/15 08:00:16;;;;;;;8.75;4.07;;;;;;;;;;5033891;28;20021;-74
2022/03/15 08:02:42;;;;;;;6.35;4.13;;;;;;;;;;5033653;28;20032;-75
2022/03/15 08:05:09;;;;;;;15.43;5.30;;;;;;;;;;5033421;28;20021;-74
2022/03/15 08:07:36;;;;;;;6.75;4.32;;;;;;;;;;5032889;28;20461;-76
2022/03/15 08:10:03;;;;;;;6.53;3.80;;;;;;;;;;5033669;28;20036;-75
2022/03/15 08:12:29;;;;;;;8.55;5.18;;;;;;;;;;5032029;28;20040;-76
2022/03/15 08:14:55;;;;;;;9.48;4.50;;;;;;;;;;5033220;28;20025;-75
2022/03/15 08:17:21;;;;;;;6.10;4.25;;;;;;;;;;5032748;28;20041;-76
2022/03/15 08:19:47;;;;;;;7.80;5.13;;;;;;;;;;5031886;28;20028;-75
2022/03/15 08:22:13;;;;;;;8.75;5.03;;;;;;;;;;5034003;28;20056;-75
2022/03/15 08:24:39;;;;;;;11.52;5.38;;;;;;;;;;5033684;28;20021;-75
2022/03/15 08:27:05;;;;;;;17.02;5.55;;;;;;;;;;5033188;28;20021;-75
2022/03/15 08:29:31;;;;;;;11.77;5.10;;;;;;;;;;5031959;28;20030;-75
2022/03/15 08:31:58;;;;;;;11.30;5.25;;;;;;;;;;5031789;28;20076;-74
2022/03/15 08:34:24;;;;;;;11.27;5.03;;;;;;;;;;5032807;28;20080;-73
2022/03/15 08:36:50;;;;;;;9.30;5.85;;;;;;;;;;5033431;28;20034;-75
2022/03/15 08:39:16;;;;;;;8.48;5.53;;;;;;;;;;5033392;28;20373;-74
2022/03/15 08:41:42;;;;;;;14.45;5.97;;;;;;;;;;5031991;28;20029;-75
2022/03/15 08:44:08;;;;;;;12.65;5.90;;;;;;;;;;5033158;28;20519;-75
2022/03/15 08:46:35;;;;;;;11.50;6.00;;;;;;;;;;5031753;28;20021;-76
2022/03/15 08:49:04;;;;;;;11.52;6.10;;;;;;;;;;5032053;28;20057;-75
2022/03/15 08:51:30;;;;;;;9.85;5.95;;;;;;;;;;5033345;28;20388;-75
2022/03/15 08:53:56;;;;;;;9.02;5.30;;;;;;;;;;5033142;28;20542;-75
2022/03/15 08:56:22;;;;;;;12.02;5.68;;;;;;;;;;5034205;28;20026;-75
2022/03/15 08:58:48;;;;;;;8.52;5.22;;;;;;;;;;5034508;28;20028;-75
2022/03/15 09:01:16;;;;;;;9.23;6.45;;;;;;;;;;5043167;28;20028;-77
2022/03/15 09:03:41;;;;;;;14.00;5.82;;;;;;;;;;5048049;28;20037;-76
2022/03/15 09:06:07;;;;;;;9.70;6.25;;;;;;;;;;5050581;28;20022;-75
2022/03/15 09:08:34;;;;;;;17.67;5.90;;;;;;;;;;5047251;28;20032;-75
2022/03/15 09:11:03;;;;;;;9.32;6.10;;;;;;;;;;5035861;28;20033;-76
2022/03/15 09:13:29;;;;;;;11.88;5.82;;;;;;;;;;5032934;28;20026;-74
2022/03/15 09:15:55;;;;;;;8.68;5.60;;;;;;;;;;5031649;28;20032;-75
2022/03/15 09:18:24;;;;;;;9.82;5.25;;;;;;;;;;5032123;28;20480;-75
2022/03/15 09:20:50;;;;;;;7.47;5.25;;;;;;;;;;5032133;28;20480;-75
2022/03/15 09:23:17;;;;;;;11.05;5.80;;;;;;;;;;5033123;28;20028;-76
2022/03/15 09:25:43;;;;;;;11.15;5.35;;;;;;;;;;5032189;28;20021;-74
2022/03/15 09:28:10;;;;;;;12.60;5.60;;;;;;;;;;5032903;28;20025;-75
2022/03/15 09:30:36;;;;;;;9.82;6.45;;;;;;;;;;5032986;28;20056;-75
2022/03/15 09:33:02;;;;;;;8.30;5.88;;;;;;;;;;5032624;28;20029;-76
2022/03/15 09:35:28;;;;;;;14.18;6.22;;;;;;;;;;5032515;28;20048;-75
2022/03/15 09:37:55;;;;;;;9.10;5.82;;;;;;;;;;5032304;28;20127;-75
2022/03/15 09:40:23;;;;;;;13.70;6.88;;;;;;;;;;5032504;28;20029;-75
2022/03/15 09:42:50;;;;;;;10.10;6.35;;;;;;;;;;5032421;28;20046;-75
2022/03/15 09:45:21;;;;;;;8.52;6.32;;;;;;;;;;5032284;28;20480;-75
2022/03/15 09:47:51;;;;;;;10.23;6.25;;;;;;;;;;5032299;28;20026;-75
2022/03/15 09:50:18;;;;;;;12.68;6.72;;;;;;;;;;5032618;28;20408;-72
2022/03/15 09:52:44;;;;;;;13.20;6.65;;;;;;;;;;5030997;28;20029;-75
2022/03/15 09:55:11;;;;;;;11.45;5.82;;;;;;;;;;5032675;28;20056;-75
2022/03/15 09:57:39;;;;;;;10.73;6.07;;;;;;;;;;5032751;28;20030;-75
2022/03/15 10:00:05;;;;;;;18.08;6.57;;;;;;;;;;5032764;28;20079;-75
2022/03/15 10:02:32;;;;;;;10.77;6.18;;;;;;;;;;5032894;28;20030;-77
2022/03/15 10:04:58;;;;;;;14.18;6.85;;;;;;;;;;5032682;28;20538;-76
2022/03/15 10:07:24;;;;;;;15.55;7.55;;;;;;;;;;5031940;28;20025;-73
2022/03/15 10:09:51;;;;;;;12.63;6.95;;;;;;;;;;5031931;28;20026;-75
2022/03/15 10:12:18;;;;;;;13.60;5.95;;;;;;;;;;5031704;28;20028;-72
2022/03/15 10:14:45;;;;;;;11.75;7.00;;;;;;;;;;5031640;28;20077;-74
2022/03/15 10:17:12;;;;;;;9.48;6.60;;;;;;;;;;5031554;28;20142;-75
2022/03/15 10:19:38;;;;;;;11.77;7.00;;;;;;;;;;5032008;28;20017;-75
2022/03/15 10:22:08;;;;;;;11.73;6.70;;;;;;;;;;5031843;28;20386;-75
2022/03/15 10:24:38;;;;;;;16.75;7.28;;;;;;;;;;5032914;28;20029;-75
2022/03/15 10:27:07;;;;;;;11.68;7.68;;;;;;;;;;5033113;28;20550;-73
2022/03/15 10:29:34;;;;;;;15.35;7.63;;;;;;;;;;5032900;28;20021;-74
2022/03/15 10:32:01;;;;;;;13.30;7.82;;;;;;;;;;5038123;28;20488;-75
2022/03/15 10:34:31;;;;;;;15.35;7.88;;;;;;;;;;5037176;28;20029;-74
2022/03/15 10:36:57;;;;;;;13.13;7.07;;;;;;;;;;5036980;28;20032;-74
2022/03/15 10:39:24;;;;;;;13.18;7.75;;;;;;;;;;5036434;28;20025;-76
2022/03/15 10:41:54;;;;;;;19.42;9.00;;;;;;;;;;5036755;28;20369;-74
2022/03/15 10:44:26;;;;;;;16.80;8.25;;;;;;;;;;5034471;28;20028;-75
2022/03/15 10:47:04;;;;;;;15.43;7.57;;;;;;;;;;5035752;28;20053;-76
2022/03/15 10:49:31;;;;;;;15.90;8.57;;;;;;;;;;5036827;28;20021;-74
2022/03/15 10:51:57;;;;;;;13.32;7.07;;;;;;;;;;5035594;28;20052;-75
2022/03/15 10:54:24;;;;;;;18.10;9.02;;;;;;;;;;5035642;28;20453;-76
2022/03/15 10:56:58;;;;;;;13.10;8.20;;;;;;;;;;5035374;28;20022;-75
2022/03/15 10:59:24;;;;;;;15.95;8.25;;;;;;;;;;5034681;28;20029;-76
2022/03/15 11:01:51;;;;;;;13.23;7.80;;;;;;;;;;5036084;28;20021;-76
2022/03/15 11:04:18;;;;;;;16.88;8.18;;;;;;;;;;5034186;28;20040;-75
2022/03/15 11:06:48;;;;;;;15.30;7.93;;;;;;;;;;5036116;28;20092;-77
2022/03/15 11:09:18;;;;;;;15.55;8.45;;;;;;;;;;5035551;28;20111;-75
2022/03/15 11:11:45;;;;;;;12.50;7.75;;;;;;;;;;5035085;28;20369;-76
2022/03/15 11:14:11;;;;;;;13.55;7.20;;;;;;;;;;5036052;28;20025;-76
2022/03/15 11:16:39;;;;;;;13.20;7.20;;;;;;;;;;5041620;28;20039;-75
2022/03/15 11:19:05;;;;;;;16.15;6.60;;;;;;;;;;5047686;28;20030;-76
2022/03/15 11:21:33;;;;;;;18.60;7.50;;;;;;;;;;5053716;28;20025;-78
2022/03/15 11:24:00;;;;;;;18.17;7.70;;;;;;;;;;5055570;28;20376;-77
2022/03/15 11:26:29;;;;;;;15.60;6.57;;;;;;;;;;5054471;28;20063;-77
2022/03/15 11:28:56;;;;;;;8.43;5.65;;;;;;;;;;5046923;28;20109;-76
2022/03/15 11:31:23;;;;;;;14.43;6.47;;;;;;;;;;5039974;28;20484;-75
2022/03/15 11:33:50;;;;;;;15.57;6.80;;;;;;;;;;5037584;28;20029;-76
2022/03/15 11:36:17;;;;;;;13.43;6.50;;;;;;;;;;5039129;28;20029;-76
2022/03/15 11:38:43;;;;;;;12.15;6.20;;;;;;;;;;5038573;28;20025;-76
2022/03/15 11:41:10;;;;;;;9.52;5.05;;;;;;;;;;5042040;28;20021;-74
2022/03/15 11:43:43;;;;;;;8.93;4.63;;;;;;;;;;5040398;28;20350;-75
2022/03/15 11:46:14;;;;;;;7.03;4.25;;;;;;;;;;5042900;28;20029;-76
2022/03/15 11:48:52;;;;;;;8.90;4.47;;;;;;;;;;5036387;28;20109;-75
2022/03/15 11:51:37;;;;;;;7.13;3.83;;;;;;;;;;5036571;28;20451;-77
2022/03/15 11:54:19;;;;;;;7.03;3.70;;;;;;;;;;5035329;28;20028;-76
2022/03/15 11:56:48;;;;;;;7.32;3.58;;;;;;;;;;5035528;28;20054;-76
2022/03/15 11:59:14;;;;;;;9.55;3.70;;;;;;;;;;5033773;28;20408;-75
2022/03/15 12:01:47;;;;;;;8.15;3.50;;;;;;;;;;5035398;28;20024;-76
2022/03/15 12:04:14;;;;;;;8.63;3.47;;;;;;;;;;5033572;28;20029;-77
2022/03/15 12:06:49;;;;;;;8.70;3.30;;;;;;;;;;5035193;28;20021;-77
2022/03/15 12:09:20;;;;;;;7.60;3.78;;;;;;;;;;5038445;28;20033;-76
2022/03/15 12:11:46;;;;;;;9.85;3.78;;;;;;;;;;5044981;28;20029;-76
2022/03/15 12:14:17;;;;;;;7.20;3.42;;;;;;;;;;5044641;28;20037;-76
2022/03/15 12:16:47;;;;;;;9.73;4.47;;;;;;;;;;5046411;28;20029;-77
2022/03/15 12:19:27;;;;;;;8.75;3.83;;;;;;;;;;5049287;28;20097;-77
2022/03/15 12:22:01;;;;;;;9.48;4.70;;;;;;;;;;5055052;28;20017;-76
2022/03/15 12:24:31;;;;;;;9.25;4.10;;;;;;;;;;5053970;28;20001;-76
2022/03/15 12:26:59;;;;;;;7.78;4.00;;;;;;;;;;5054594;28;20085;-77
2022/03/15 12:29:27;;;;;;;6.65;4.22;;;;;;;;;;5052339;28;20025;-76
2022/03/15 12:31:53;;;;;;;10.70;4.68;;;;;;;;;;5048251;28;20048;-77
2022/03/15 12:34:19;;;;;;;7.15;4.57;;;;;;;;;;5046304;28;20025;-76
2022/03/15 12:36:55;;;;;;;11.88;5.15;;;;;;;;;;5044292;28;20034;-75
2022/03/15 12:39:22;;;;;;;7.60;4.22;;;;;;;;;;5044843;28;20025;-77
2022/03/15 12:41:50;;;;;;;7.68;3.95;;;;;;;;;;5040520;28;20014;-74
2022/03/15 12:44:22;;;;;;;8.05;4.32;;;;;;;;;;5035843;28;20021;-76
2022/03/15 12:46:49;;;;;;;7.68;4.35;;;;;;;;;;5035592;28;20014;-76
2022/03/15 12:49:19;;;;;;;9.23;3.85;;;;;;;;;;5037855;28;20026;-76
2022/03/15 12:51:46;;;;;;;9.57;4.38;;;;;;;;;;5040378;28;20092;-75
2022/03/15 12:54:12;;;;;;;7.97;3.50;;;;;;;;;;5036268;28;20029;-77
2022/03/15 12:56:58;;;;;;;10.40;3.95;;;;;;;;;;5037614;28;20037;-78
2022/03/15 12:59:25;;;;;;;14.07;4.65;;;;;;;;;;5037615;28;20021;-77
2022/03/15 13:01:52;;;;;;;8.82;4.30;;;;;;;;;;5035375;28;20086;-76
2022/03/15 13:04:18;;;;;;;7.28;4.07;;;;;;;;;;5037469;28;20474;-75
2022/03/15 13:06:45;;;;;;;7.68;3.67;;;;;;;;;;5039293;28;20311;-77
2022/03/15 13:09:12;;;;;;;8.38;3.88;;;;;;;;;;5040663;28;20369;-77
2022/03/15 13:11:47;;;;;;;11.10;4.75;;;;;;;;;;5043644;28;20025;-76
2022/03/15 13:14:13;;;;;;;10.73;4.78;;;;;;;;;;5041091;28;20044;-77
2022/03/15 13:16:45;;;;;;;10.60;4.65;;;;;;;;;;5038389;28;20017;-76
2022/03/15 13:19:12;;;;;;;10.82;4.80;;;;;;;;;;5038740;28;20108;-75
2022/03/15 13:21:39;;;;;;;13.38;4.90;;;;;;;;;;5037185;28;20024;-77
2022/03/15 13:24:09;;;;;;;9.88;5.97;;;;;;;;;;5036057;28;20128;-76
2022/03/15 13:26:36;;;;;;;12.25;5.60;;;;;;;;;;5035142;28;20068;-75
2022/03/15 13:29:05;;;;;;;12.27;5.47;;;;;;;;;;5035628;28;20021;-75
2022/03/15 13:31:31;;;;;;;8.93;5.03;;;;;;;;;;5037830;28;20104;-77
2022/03/15 13:33:58;;;;;;;11.48;5.50;;;;;;;;;;5037982;28;20057;-76
2022/03/15 13:36:34;;;;;;;12.95;5.32;;;;;;;;;;5052546;23;20037;-80
2022/03/15 13:39:04;;;;;;;10.23;5.47;;;;;;;;;;5057295;28;20033;-80
2022/03/15 13:41:36;;;;;;;9.48;5.75;;;;;;;;;;5058342;28;20021;-80
2022/03/15 13:44:04;;;;;;;17.05;6.32;;;;;;;;;;5057710;28;20343;-80
2022/03/15 13:46:31;;;;;;;8.55;5.50;;;;;;;;;;5069111;28;20025;-81
2022/03/15 13:48:58;;;;;;;9.88;5.75;;;;;;;;;;5065568;28;20189;-81
2022/03/15 13:51:40;;;;;;;15.48;6.75;;;;;;;;;;5062901;28;20025;-80
2022/03/15 13:54:14;;;;;;;10.20;5.60;;;;;;;;;;5060669;28;20415;-79
2022/03/15 13:56:43;;;;;;;9.10;5.40;;;;;;;;;;5045014;28;20055;-80
2022/03/15 13:59:09;;;;;;;13.95;6.22;;;;;;;;;;5044276;28;20029;-80
2022/03/15 14:01:37;;;;;;;12.35;6.45;;;;;;;;;;5058743;28;20029;-80
2022/03/15 14:04:04;;;;;;;7.93;5.85;;;;;;;;;;5060070;28;20021;-80
2022/03/15 14:06:35;;;;;;;9.43;5.55;;;;;;;;;;5060460;28;20036;-80
2022/03/15 14:09:01;;;;;;;15.30;6.30;;;;;;;;;;5061534;28;20077;-80
2022/03/15 14:11:35;;;;;;;10.88;6.10;;;;;;;;;;5058321;28;20028;-80
2022/03/15 14:14:06;;;;;;;8.90;5.10;;;;;;;;;;5058321;28;20025;-80
2022/03/15 14:16:37;;;;;;;11.73;5.83;;;;;;;;;;5059096;28;20080;-81
2022/03/15 14:19:04;;;;;;;19.75;6.70;;;;;;;;;;5057190;28;20039;-81
2022/03/15 14:21:31;;;;;;;11.27;6.15;;;;;;;;;;5048943;28;20035;-82
2022/03/15 14:23:57;;;;;;;12.63;5.97;;;;;;;;;;5036823;28;20017;-80
2022/03/15 14:26:30;;;;;;;9.50;5.70;;;;;;;;;;5039252;28;20021;-80
2022/03/15 14:28:57;;;;;;;12.77;6.28;;;;;;;;;;5036014;28;20053;-80
2022/03/15 14:31:30;;;;;;;13.85;6.97;;;;;;;;;;5037738;28;20021;-80
2022/03/15 14:34:03;;;;;;;14.30;6.10;;;;;;;;;;5036839;28;20397;-80
2022/03/15 14:36:31;;;;;;;13.68;5.65;;;;;;;;;;5037483;28;20045;-80